Time;durP1;ratioP1;P1;durP2;ratioP2;P2;SDS_P1;SDS_P2;PMS_P1;PMS_P2;Temp;Humidity;BMP_temperature;BMP_pressure;BME280_temperature;BME280_humidity;BME280_pressure;Samples;Min_cycle;Max_cycle;Signal;HPM_P1;HPM_P2
2022/02/23 00:01:29;;;;;;;0.45;0.45;;;10.80;99.90;;;;;;5015045;28;20026;-73
2022/02/23 00:03:55;;;;;;;0.40;0.40;;;10.80;99.90;;;;;;5014995;28;20144;-72
2022/02/23 00:06:21;;;;;;;2.30;1.83;;;10.80;99.90;;;;;;5014895;28;20522;-72
2022/02/23 00:08:46;;;;;;;4.78;1.17;;;10.80;99.90;;;;;;5014277;28;20030;-73
2022/02/23 00:11:12;;;;;;;0.10;0.10;;;10.70;99.90;;;;;;5014711;28;20101;-72
2022/02/23 00:13:38;;;;;;;0.75;0.50;;;10.80;99.90;;;;;;5014581;28;20022;-73
2022/02/23 00:16:05;;;;;;;0.10;0.10;;;10.80;99.90;;;;;;5013539;28;20025;-72
2022/02/23 00:18:31;;;;;;;0.00;0.00;;;10.70;99.90;;;;;;5014115;28;20456;-72
2022/02/23 00:20:57;;;;;;;6.43;2.20;;;10.70;99.90;;;;;;5014798;28;20026;-72
2022/02/23 00:23:23;;;;;;;2.58;1.13;;;10.60;99.90;;;;;;5014567;28;20029;-72
2022/02/23 00:25:49;;;;;;;0.85;0.85;;;10.50;99.90;;;;;;5014555;28;20488;-72
2022/02/23 00:28:15;;;;;;;0.47;0.10;;;10.40;99.90;;;;;;5014171;28;20129;-72
2022/02/23 00:30:41;;;;;;;2.00;1.20;;;10.40;99.90;;;;;;5014418;28;20029;-72
2022/02/23 00:33:07;;;;;;;1.02;1.02;;;10.40;99.90;;;;;;5013832;28;20038;-72
2022/02/23 00:35:33;;;;;;;1.25;0.50;;;10.40;99.90;;;;;;5014538;28;20033;-72
2022/02/23 00:37:59;;;;;;;0.68;0.68;;;10.50;99.90;;;;;;5029164;28;20025;-72
2022/02/23 00:40:24;;;;;;;6.57;3.80;;;10.50;99.90;;;;;;5033636;28;20388;-72
2022/02/23 00:42:53;;;;;;;0.17;0.17;;;10.60;99.90;;;;;;5034122;28;20033;-72
2022/02/23 00:45:19;;;;;;;3.20;1.38;;;10.60;99.90;;;;;;5033943;28;20045;-72
2022/02/23 00:47:45;;;;;;;1.65;0.63;;;10.60;99.90;;;;;;5033450;28;20036;-72
2022/02/23 00:50:10;;;;;;;3.03;0.95;;;10.60;99.90;;;;;;5033286;28;20029;-72
2022/02/23 00:52:36;;;;;;;0.73;0.73;;;10.60;99.90;;;;;;5032968;28;20055;-72
2022/02/23 00:55:02;;;;;;;7.93;3.20;;;10.70;99.90;;;;;;5033134;28;20423;-72
2022/02/23 00:57:28;;;;;;;0.00;0.00;;;10.70;99.90;;;;;;5029087;28;20088;-72
2022/02/23 00:59:54;;;;;;;12.48;3.35;;;10.70;99.90;;;;;;5013907;28;20449;-72
2022/02/23 01:02:20;;;;;;;0.00;0.00;;;10.70;99.90;;;;;;5013740;28;20026;-72
2022/02/23 01:04:45;;;;;;;1.00;0.75;;;10.70;99.90;;;;;;5014017;28;20030;-72
2022/02/23 01:07:13;;;;;;;2.53;1.30;;;10.70;99.90;;;;;;5013907;28;20034;-73
2022/02/23 01:09:38;;;;;;;0.30;0.30;;;10.70;99.90;;;;;;5012576;28;20546;-72
2022/02/23 01:12:04;;;;;;;0.17;0.17;;;10.70;99.90;;;;;;5012689;28;20034;-72
2022/02/23 01:14:30;;;;;;;0.75;0.70;;;10.70;99.90;;;;;;5013782;28;20022;-72
2022/02/23 01:16:56;;;;;;;33.95;4.47;;;10.70;99.90;;;;;;5028247;28;20571;-73
2022/02/23 01:19:22;;;;;;;0.93;0.93;;;10.70;99.90;;;;;;5013153;28;20393;-72
2022/02/23 01:21:47;;;;;;;0.75;0.75;;;10.70;99.90;;;;;;5013748;28;20022;-73
2022/02/23 01:24:13;;;;;;;2.72;1.38;;;10.60;99.90;;;;;;5013119;28;20393;-72
2022/02/23 01:26:39;;;;;;;7.68;3.97;;;10.60;99.90;;;;;;5013907;28;20029;-72
2022/02/23 01:29:05;;;;;;;0.45;0.45;;;10.70;99.90;;;;;;5013184;28;20040;-72
2022/02/23 01:31:30;;;;;;;0.00;0.00;;;10.70;99.90;;;;;;5012810;28;20022;-72
2022/02/23 01:33:56;;;;;;;0.43;0.43;;;10.60;99.90;;;;;;5013691;28;20409;-72
2022/02/23 01:36:22;;;;;;;4.35;1.10;;;10.60;99.90;;;;;;5015293;28;20026;-72
2022/02/23 01:38:47;;;;;;;0.00;0.00;;;10.70;99.90;;;;;;5032727;28;20112;-72
2022/02/23 01:41:17;;;;;;;0.52;0.52;;;10.60;99.90;;;;;;5032851;28;20025;-72
2022/02/23 01:43:44;;;;;;;1.17;1.00;;;10.60;99.90;;;;;;5032249;28;20037;-72
2022/02/23 01:46:10;;;;;;;0.30;0.30;;;10.60;99.90;;;;;;5033133;28;20445;-72
2022/02/23 01:48:36;;;;;;;22.23;1.08;;;10.60;99.90;;;;;;5031919;28;20416;-72
2022/02/23 01:51:02;;;;;;;0.15;0.15;;;10.60;99.90;;;;;;5032599;28;20045;-72
2022/02/23 01:53:27;;;;;;;0.70;0.45;;;10.60;99.90;;;;;;5032192;28;20123;-72
2022/02/23 01:55:53;;;;;;;0.00;0.00;;;10.60;99.90;;;;;;5032745;28;20021;-72
2022/02/23 01:58:18;;;;;;;0.55;0.28;;;10.60;99.90;;;;;;5033067;28;20104;-72
2022/02/23 02:00:44;;;;;;;2.28;1.85;;;10.60;99.90;;;;;;5032885;28;20032;-72
2022/02/23 02:03:10;;;;;;;2.50;0.90;;;10.60;99.90;;;;;;5032755;28;20120;-73
2022/02/23 02:05:36;;;;;;;0.40;0.40;;;10.60;99.90;;;;;;5032634;28;20108;-72
2022/02/23 02:08:02;;;;;;;0.00;0.00;;;10.60;99.90;;;;;;5032270;28;20475;-72
2022/02/23 02:10:28;;;;;;;1.70;1.50;;;10.60;99.90;;;;;;5032754;28;20026;-72
2022/02/23 02:12:53;;;;;;;4.28;1.60;;;10.60;99.90;;;;;;5032579;28;20052;-72
2022/02/23 02:15:19;;;;;;;0.22;0.22;;;10.60;99.90;;;;;;5032465;28;20056;-73
2022/02/23 02:17:45;;;;;;;1.55;0.80;;;10.60;99.90;;;;;;5031973;28;20033;-72
2022/02/23 02:20:11;;;;;;;1.10;1.10;;;10.60;99.90;;;;;;5032182;28;20396;-72
2022/02/23 02:22:37;;;;;;;0.90;0.90;;;10.60;99.90;;;;;;5032611;28;20040;-72
2022/02/23 02:25:04;;;;;;;4.63;1.85;;;10.70;99.90;;;;;;5032401;28;20476;-72
2022/02/23 02:27:30;;;;;;;0.10;0.10;;;10.60;99.90;;;;;;5032610;28;20028;-72
2022/02/23 02:29:55;;;;;;;1.08;0.98;;;10.70;99.90;;;;;;5032658;28;20431;-72
2022/02/23 02:32:21;;;;;;;13.88;3.03;;;10.60;99.90;;;;;;5032372;28;20459;-72
2022/02/23 02:34:47;;;;;;;2.20;1.33;;;10.60;99.90;;;;;;5028565;28;20018;-73
2022/02/23 02:37:14;;;;;;;0.10;0.10;;;10.60;99.90;;;;;;5021748;28;20032;-72
2022/02/23 02:39:40;;;;;;;0.52;0.52;;;10.60;99.90;;;;;;5031567;28;20069;-72
2022/02/23 02:42:06;;;;;;;0.77;0.77;;;10.60;99.90;;;;;;5032435;28;20029;-72
2022/02/23 02:44:32;;;;;;;1.05;1.02;;;10.60;99.90;;;;;;5035584;28;20512;-73
2022/02/23 02:46:58;;;;;;;2.17;0.85;;;10.60;99.90;;;;;;5036354;28;20068;-72
2022/02/23 02:49:24;;;;;;;1.73;1.42;;;10.60;99.90;;;;;;5035188;28;20049;-72
2022/02/23 02:51:50;;;;;;;11.95;1.60;;;10.60;99.90;;;;;;5035864;28;20057;-73
2022/02/23 02:54:16;;;;;;;2.65;0.90;;;10.60;99.90;;;;;;5034789;28;20095;-72
2022/02/23 02:56:42;;;;;;;0.90;0.90;;;10.60;99.90;;;;;;5035884;28;20096;-73
2022/02/23 02:59:08;;;;;;;0.63;0.63;;;10.60;99.90;;;;;;5033603;28;20113;-72
2022/02/23 03:01:35;;;;;;;1.30;1.23;;;10.60;99.90;;;;;;5035749;28;20036;-72
2022/02/23 03:04:02;;;;;;;4.05;1.80;;;10.60;99.90;;;;;;5035865;28;20037;-73
2022/02/23 03:06:28;;;;;;;3.83;2.92;;;10.60;99.90;;;;;;5035775;28;20492;-72
2022/02/23 03:08:55;;;;;;;5.18;2.65;;;10.60;99.90;;;;;;5035177;28;20028;-72
2022/02/23 03:11:22;;;;;;;4.68;2.05;;;10.60;99.90;;;;;;5035769;28;20069;-72
2022/02/23 03:13:47;;;;;;;0.47;0.47;;;10.60;99.90;;;;;;5034389;28;20025;-73
2022/02/23 03:16:14;;;;;;;38.30;3.30;;;10.60;99.90;;;;;;5035404;28;20388;-73
2022/02/23 03:18:40;;;;;;;1.45;1.27;;;10.60;99.90;;;;;;5035293;28;20022;-72
2022/02/23 03:21:07;;;;;;;0.20;0.20;;;10.60;99.90;;;;;;5035691;28;20048;-72
2022/02/23 03:23:33;;;;;;;0.35;0.35;;;10.60;99.90;;;;;;5033897;28;20026;-72
2022/02/23 03:25:59;;;;;;;1.55;0.57;;;10.60;99.90;;;;;;5034368;28;20030;-73
2022/02/23 03:28:25;;;;;;;3.72;1.30;;;10.60;99.90;;;;;;5034638;28;20561;-72
2022/02/23 03:30:51;;;;;;;0.13;0.13;;;10.60;99.90;;;;;;5035697;28;20086;-72
2022/02/23 03:33:17;;;;;;;0.65;0.65;;;10.60;99.90;;;;;;5035615;28;20393;-73
2022/02/23 03:35:44;;;;;;;1.95;1.77;;;10.60;99.90;;;;;;5023292;28;20030;-73
2022/02/23 03:38:11;;;;;;;0.73;0.57;;;10.60;99.90;;;;;;5031851;28;20017;-72
2022/02/23 03:40:38;;;;;;;15.75;3.13;;;10.60;99.90;;;;;;5035099;28;20159;-73
2022/02/23 03:43:04;;;;;;;2.58;1.42;;;10.60;99.90;;;;;;5034911;28;20052;-73
2022/02/23 03:45:31;;;;;;;4.75;1.52;;;10.60;99.90;;;;;;5035240;28;20041;-73
2022/02/23 03:47:58;;;;;;;0.30;0.30;;;10.60;99.90;;;;;;5035090;28;20467;-72
2022/02/23 03:50:24;;;;;;;3.72;3.03;;;10.60;99.90;;;;;;5033982;28;20029;-72
2022/02/23 03:52:49;;;;;;;2.92;0.98;;;10.50;99.90;;;;;;5034732;28;20030;-72
2022/02/23 03:55:15;;;;;;;0.52;0.52;;;10.60;99.90;;;;;;5033872;28;20079;-73
2022/02/23 03:57:41;;;;;;;0.00;0.00;;;10.50;99.90;;;;;;5035020;28;20032;-72
2022/02/23 04:00:10;;;;;;;2.45;1.33;;;10.50;99.90;;;;;;5033316;28;20025;-72
2022/02/23 04:02:35;;;;;;;1.30;1.23;;;10.60;99.90;;;;;;5034271;28;20029;-72
2022/02/23 04:05:02;;;;;;;4.88;1.95;;;10.60;99.90;;;;;;5034221;28;20026;-72
2022/02/23 04:07:28;;;;;;;1.27;1.25;;;10.50;99.90;;;;;;5034431;28;20029;-72
2022/02/23 04:09:54;;;;;;;1.27;0.90;;;10.50;99.90;;;;;;5034468;28;20037;-73
2022/02/23 04:12:19;;;;;;;2.10;1.25;;;10.50;99.90;;;;;;5033611;28;20025;-72
2022/02/23 04:14:46;;;;;;;0.00;0.00;;;10.50;99.90;;;;;;5034743;28;20067;-72
2022/02/23 04:17:12;;;;;;;1.85;1.17;;;10.50;99.90;;;;;;5034133;28;20468;-73
2022/02/23 04:19:38;;;;;;;1.38;0.60;;;10.60;99.90;;;;;;5034351;28;20032;-72
2022/02/23 04:22:05;;;;;;;0.10;0.10;;;10.50;99.90;;;;;;5034713;28;20033;-73
2022/02/23 04:24:31;;;;;;;13.95;4.18;;;10.50;99.90;;;;;;5033834;28;20030;-72
2022/02/23 04:26:57;;;;;;;0.25;0.17;;;10.50;99.90;;;;;;5032960;28;20033;-72
2022/02/23 04:29:22;;;;;;;0.30;0.30;;;10.50;99.90;;;;;;5034400;28;20503;-73
2022/02/23 04:31:49;;;;;;;1.23;0.55;;;10.50;99.90;;;;;;5034144;28;20040;-73
2022/02/23 04:34:15;;;;;;;5.50;1.27;;;10.50;99.90;;;;;;5033672;28;20014;-73
2022/02/23 04:36:41;;;;;;;0.82;0.82;;;10.50;99.90;;;;;;5019021;28;20027;-72
2022/02/23 04:39:08;;;;;;;0.73;0.73;;;10.50;99.90;;;;;;5033280;28;20052;-72
2022/02/23 04:41:34;;;;;;;0.70;0.47;;;10.60;99.90;;;;;;5034129;28;20021;-73
2022/02/23 04:44:00;;;;;;;2.33;0.98;;;10.50;99.90;;;;;;5033968;28;20092;-73
2022/02/23 04:46:26;;;;;;;0.60;0.60;;;10.60;99.90;;;;;;5034251;28;20037;-73
2022/02/23 04:48:53;;;;;;;0.28;0.28;;;10.60;99.90;;;;;;5033261;28;20107;-73
2022/02/23 04:51:23;;;;;;;17.73;3.00;;;10.60;99.90;;;;;;5031928;28;20080;-72
2022/02/23 04:53:49;;;;;;;3.15;1.55;;;10.60;99.90;;;;;;5033182;28;20021;-72
2022/02/23 04:56:15;;;;;;;1.75;1.02;;;10.60;99.90;;;;;;5033882;28;20499;-72
2022/02/23 04:58:41;;;;;;;0.10;0.10;;;10.60;99.90;;;;;;5033756;28;20036;-73
2022/02/23 05:01:07;;;;;;;5.72;2.05;;;10.60;99.90;;;;;;5033460;28;20477;-72
2022/02/23 05:03:33;;;;;;;1.27;1.17;;;10.60;99.90;;;;;;5033415;28;20032;-72
2022/02/23 05:05:59;;;;;;;0.43;0.43;;;10.70;99.90;;;;;;5032745;28;20037;-72
2022/02/23 05:08:26;;;;;;;1.27;0.95;;;10.60;99.90;;;;;;5032957;28;20052;-72
2022/02/23 05:10:52;;;;;;;3.50;1.75;;;10.70;99.90;;;;;;5033054;28;20485;-73
2022/02/23 05:13:18;;;;;;;0.57;0.57;;;10.60;99.90;;;;;;5032664;28;20095;-72
2022/02/23 05:15:44;;;;;;;0.35;0.35;;;10.60;99.90;;;;;;5033242;28;20021;-72
2022/02/23 05:18:10;;;;;;;0.00;0.00;;;10.60;99.90;;;;;;5032951;28;20029;-72
2022/02/23 05:20:36;;;;;;;2.83;2.30;;;10.60;99.90;;;;;;5033514;28;20496;-73
2022/02/23 05:23:05;;;;;;;0.47;0.47;;;10.60;99.90;;;;;;5033262;28;20057;-73
2022/02/23 05:25:30;;;;;;;0.35;0.35;;;10.60;99.90;;;;;;5033039;28;20026;-73
2022/02/23 05:27:56;;;;;;;8.07;0.38;;;10.60;99.90;;;;;;5033249;28;20060;-73
2022/02/23 05:30:22;;;;;;;1.20;0.75;;;10.60;99.90;;;;;;5033171;28;20033;-72
2022/02/23 05:32:48;;;;;;;0.52;0.45;;;10.60;99.90;;;;;;5032920;28;20395;-73
2022/02/23 05:35:13;;;;;;;0.03;0.03;;;10.60;99.90;;;;;;5025404;28;20033;-72
2022/02/23 05:37:39;;;;;;;0.28;0.28;;;10.60;99.90;;;;;;5025376;28;20104;-73
2022/02/23 05:40:07;;;;;;;9.75;2.85;;;10.60;99.90;;;;;;5032620;28;20032;-73
2022/02/23 05:42:33;;;;;;;1.98;0.70;;;10.60;99.90;;;;;;5032992;28;20026;-73
2022/02/23 05:44:59;;;;;;;0.55;0.55;;;10.50;99.90;;;;;;5032778;28;20579;-73
2022/02/23 05:47:26;;;;;;;1.42;1.20;;;10.50;99.90;;;;;;5032507;28;20036;-72
2022/02/23 05:49:52;;;;;;;0.00;0.00;;;10.50;99.90;;;;;;5031839;28;20041;-72
2022/02/23 05:52:20;;;;;;;1.15;0.43;;;10.50;99.90;;;;;;5031362;28;20033;-73
2022/02/23 05:54:48;;;;;;;1.23;1.13;;;10.50;99.90;;;;;;5032287;28;20017;-72
2022/02/23 05:57:14;;;;;;;0.15;0.15;;;10.50;99.90;;;;;;5032716;28;20049;-72
2022/02/23 05:59:39;;;;;;;0.25;0.25;;;10.50;99.90;;;;;;5032266;28;20022;-73
2022/02/23 06:02:05;;;;;;;10.13;2.80;;;10.50;99.90;;;;;;5032693;28;20497;-73
2022/02/23 06:04:31;;;;;;;0.55;0.28;;;10.50;99.90;;;;;;5032711;28;20033;-72
2022/02/23 06:06:56;;;;;;;0.57;0.57;;;10.40;99.90;;;;;;5032960;28;20083;-72
2022/02/23 06:09:22;;;;;;;0.00;0.00;;;10.50;99.90;;;;;;5032415;28;20037;-72
2022/02/23 06:11:49;;;;;;;0.00;0.00;;;10.50;99.90;;;;;;5032744;28;20040;-72
2022/02/23 06:14:15;;;;;;;0.00;0.00;;;10.50;99.90;;;;;;5032434;28;20028;-72
2022/02/23 06:16:40;;;;;;;0.77;0.77;;;10.50;99.90;;;;;;5032505;28;20492;-73
2022/02/23 06:19:06;;;;;;;0.00;0.00;;;10.50;99.90;;;;;;5036595;28;20022;-73
2022/02/23 06:21:32;;;;;;;0.00;0.00;;;10.50;99.90;;;;;;5036905;28;20022;-72
2022/02/23 06:23:58;;;;;;;0.00;0.00;;;10.40;99.90;;;;;;5034314;28;20036;-72
2022/02/23 06:26:23;;;;;;;2.53;0.90;;;10.40;99.90;;;;;;5036113;28;20029;-72
2022/02/23 06:28:50;;;;;;;0.15;0.10;;;10.40;99.90;;;;;;5035964;28;20071;-72
2022/02/23 06:31:16;;;;;;;0.10;0.10;;;10.40;99.90;;;;;;5036494;28;20018;-73
2022/02/23 06:33:43;;;;;;;0.30;0.30;;;10.40;99.90;;;;;;5036250;28;20041;-72
2022/02/23 06:36:10;;;;;;;14.52;4.38;;;10.40;99.90;;;;;;5023334;28;20045;-72
2022/02/23 06:38:38;;;;;;;0.00;0.00;;;10.40;99.90;;;;;;5036001;28;20018;-73
2022/02/23 06:41:12;;;;;;;1.75;1.65;;;10.40;99.90;;;;;;5036017;28;20029;-73
2022/02/23 06:43:38;;;;;;;0.45;0.45;;;10.40;99.90;;;;;;5035936;28;20046;-72
2022/02/23 06:46:04;;;;;;;0.00;0.00;;;10.40;99.90;;;;;;5021297;28;20057;-73
2022/02/23 06:48:31;;;;;;;0.00;0.00;;;10.40;99.90;;;;;;5032670;28;20041;-73
2022/02/23 06:50:57;;;;;;;0.85;0.65;;;10.30;99.90;;;;;;5035121;28;20030;-73
2022/02/23 06:53:22;;;;;;;0.13;0.13;;;10.30;99.90;;;;;;5034265;28;20032;-73
2022/02/23 06:55:48;;;;;;;0.00;0.00;;;10.30;99.90;;;;;;5035475;28;20781;-73
2022/02/23 06:58:14;;;;;;;3.20;1.50;;;10.30;99.90;;;;;;5035042;28;20022;-73
2022/02/23 07:00:40;;;;;;;0.00;0.00;;;10.30;99.90;;;;;;5035271;28;20026;-73
2022/02/23 07:03:07;;;;;;;0.90;0.43;;;10.40;99.90;;;;;;5035674;28;20443;-73
2022/02/23 07:05:33;;;;;;;0.57;0.57;;;10.30;99.90;;;;;;5035344;28;20086;-73
2022/02/23 07:08:02;;;;;;;1.88;0.93;;;10.40;99.90;;;;;;5035353;28;20025;-74
2022/02/23 07:10:29;;;;;;;0.00;0.00;;;10.40;99.90;;;;;;5035491;28;20025;-73
2022/02/23 07:12:55;;;;;;;0.57;0.57;;;10.40;99.90;;;;;;5034361;28;20104;-73
2022/02/23 07:15:23;;;;;;;14.05;1.95;;;10.40;99.90;;;;;;5033879;28;20025;-73
2022/02/23 07:17:49;;;;;;;0.00;0.00;;;10.40;99.90;;;;;;5035061;28;20119;-73
2022/02/23 07:20:15;;;;;;;3.10;0.98;;;10.40;99.90;;;;;;5034841;28;20025;-73
2022/02/23 07:22:41;;;;;;;0.00;0.00;;;10.40;99.90;;;;;;5033224;28;20387;-74
2022/02/23 07:25:09;;;;;;;0.00;0.00;;;10.40;99.90;;;;;;5034458;28;20041;-73
2022/02/23 07:27:35;;;;;;;0.68;0.68;;;10.50;99.90;;;;;;5026842;28;20025;-73
2022/02/23 07:30:06;;;;;;;0.35;0.35;;;10.50;99.90;;;;;;5030755;28;20504;-73
2022/02/23 07:32:33;;;;;;;0.22;0.22;;;10.60;99.90;;;;;;5033835;28;20032;-73
2022/02/23 07:35:00;;;;;;;0.47;0.45;;;10.60;99.90;;;;;;5034035;28;20115;-73
2022/02/23 07:37:26;;;;;;;0.60;0.60;;;10.70;99.90;;;;;;5028074;28;20021;-73
2022/02/23 07:40:04;;;;;;;6.65;1.98;;;10.80;99.90;;;;;;5033643;28;20112;-73
2022/02/23 07:42:31;;;;;;;0.70;0.52;;;10.70;99.90;;;;;;5031729;28;20037;-73
2022/02/23 07:44:56;;;;;;;1.65;1.50;;;10.70;99.90;;;;;;5025009;28;20556;-73
2022/02/23 07:47:22;;;;;;;0.93;0.80;;;10.70;99.90;;;;;;5031643;28;20100;-73
2022/02/23 07:49:49;;;;;;;0.47;0.47;;;10.70;99.90;;;;;;5029136;28;20026;-73
2022/02/23 07:52:18;;;;;;;0.30;0.30;;;10.80;99.90;;;;;;5028678;28;20111;-73
2022/02/23 07:54:44;;;;;;;0.93;0.50;;;10.80;99.90;;;;;;5030769;28;20495;-73
2022/02/23 07:57:11;;;;;;;0.30;0.30;;;11.00;99.90;;;;;;5033407;28;20112;-74
2022/02/23 07:59:36;;;;;;;0.10;0.10;;;10.90;99.90;;;;;;5032887;28;20035;-73
2022/02/23 08:02:03;;;;;;;0.08;0.08;;;11.00;99.90;;;;;;5032063;28;20100;-74
2022/02/23 08:04:29;;;;;;;0.15;0.15;;;11.00;99.90;;;;;;5025926;28;20125;-74
2022/02/23 08:06:58;;;;;;;1.95;1.45;;;11.00;99.90;;;;;;5024985;28;20488;-74
2022/02/23 08:09:23;;;;;;;0.25;0.25;;;11.00;99.90;;;;;;5036497;28;20078;-74
2022/02/23 08:11:49;;;;;;;0.52;0.52;;;11.10;99.90;;;;;;5024694;28;20466;-74
2022/02/23 08:14:15;;;;;;;0.10;0.10;;;11.10;99.90;;;;;;5020528;28;20461;-73
2022/02/23 08:22:19;;;;;;;26.05;1.10;;;11.20;99.90;;;;;;5038160;28;20021;-73
2022/02/23 08:24:47;;;;;;;9.77;1.92;;;11.20;99.90;;;;;;5024181;28;20109;-75
2022/02/23 08:27:18;;;;;;;3.22;0.70;;;11.30;99.90;;;;;;5026044;28;20041;-74
2022/02/23 08:29:44;;;;;;;3.85;1.58;;;11.40;99.90;;;;;;5019881;28;20069;-73
2022/02/23 08:32:12;;;;;;;1.02;0.52;;;11.40;99.90;;;;;;5012667;28;20034;-74
2022/02/23 08:34:41;;;;;;;0.80;0.80;;;11.50;99.90;;;;;;5017543;28;20525;-73
2022/02/23 08:37:07;;;;;;;5.57;2.05;;;11.70;99.90;;;;;;5034232;28;20021;-74
2022/02/23 08:39:34;;;;;;;7.88;2.92;;;11.60;99.90;;;;;;5036349;28;20472;-73
2022/02/23 08:42:00;;;;;;;0.13;0.13;;;11.80;99.90;;;;;;5051064;28;20409;-74
2022/02/23 08:44:25;;;;;;;0.00;0.00;;;11.80;99.90;;;;;;5014943;28;20124;-73
2022/02/23 08:46:51;;;;;;;19.27;0.70;;;11.80;99.90;;;;;;5017547;28;20076;-73
2022/02/23 08:49:17;;;;;;;0.00;0.00;;;11.90;99.90;;;;;;5023656;28;20543;-74
2022/02/23 08:51:46;;;;;;;1.88;1.35;;;12.00;99.90;;;;;;5019069;28;20079;-74
2022/02/23 08:54:14;;;;;;;4.55;1.65;;;12.20;99.90;;;;;;5036512;28;20533;-73
2022/02/23 08:56:40;;;;;;;1.45;0.73;;;12.20;99.90;;;;;;5029542;28;20049;-74
2022/02/23 08:59:05;;;;;;;0.30;0.30;;;12.20;99.90;;;;;;5026337;28;20056;-75
2022/02/23 09:01:32;;;;;;;0.32;0.32;;;12.40;99.90;;;;;;5019889;28;20033;-73
2022/02/23 09:04:02;;;;;;;3.60;1.25;;;12.40;99.90;;;;;;5022230;28;20021;-73
2022/02/23 09:06:29;;;;;;;1.60;1.40;;;12.60;99.90;;;;;;5034422;28;20032;-74
2022/02/23 09:08:54;;;;;;;0.00;0.00;;;12.70;99.90;;;;;;5033203;28;20034;-75
2022/02/23 09:11:20;;;;;;;0.88;0.88;;;12.60;99.90;;;;;;5021490;28;20052;-75
2022/02/23 09:13:46;;;;;;;0.22;0.22;;;12.50;99.90;;;;;;5028954;28;20031;-73
2022/02/23 09:16:11;;;;;;;6.03;0.98;;;12.60;99.90;;;;;;5014715;28;20026;-74
2022/02/23 09:18:37;;;;;;;0.30;0.30;;;12.60;99.90;;;;;;5023962;28;20025;-73
2022/02/23 09:21:03;;;;;;;0.00;0.00;;;12.60;99.90;;;;;;5047723;28;20116;-73
2022/02/23 09:23:31;;;;;;;2.17;1.17;;;12.50;99.90;;;;;;5024209;28;20495;-75
2022/02/23 09:25:57;;;;;;;4.28;1.17;;;12.60;99.90;;;;;;5017230;28;20038;-73
2022/02/23 09:28:24;;;;;;;4.07;1.27;;;12.70;99.90;;;;;;5011962;28;20058;-75
2022/02/23 09:30:50;;;;;;;5.32;1.27;;;12.70;99.90;;;;;;5027289;28;20116;-73
2022/02/23 09:33:16;;;;;;;0.25;0.22;;;12.70;99.90;;;;;;5013928;28;20022;-73
2022/02/23 09:35:45;;;;;;;6.65;1.60;;;12.60;99.90;;;;;;5014860;28;20026;-74
2022/02/23 09:38:12;;;;;;;7.47;1.17;;;12.50;99.90;;;;;;5028909;28;20017;-74
2022/02/23 09:40:41;;;;;;;0.55;0.55;;;12.60;99.90;;;;;;5022592;28;20022;-73
2022/02/23 09:43:07;;;;;;;0.28;0.28;;;12.80;99.90;;;;;;5008593;28;20325;-73
2022/02/23 09:45:36;;;;;;;0.10;0.10;;;12.90;99.90;;;;;;5019792;28;20446;-75
2022/02/23 09:48:03;;;;;;;0.35;0.35;;;14.70;99.90;;;;;;5034526;28;20021;-75
2022/02/23 09:50:29;;;;;;;0.93;0.93;;;16.90;99.90;;;;;;5045100;28;20048;-75
2022/02/23 09:52:55;;;;;;;0.63;0.63;;;17.60;99.90;;;;;;5022130;28;20029;-75
2022/02/23 09:55:21;;;;;;;2.63;0.93;;;17.30;99.90;;;;;;5020103;28;20060;-75
2022/02/23 09:57:47;;;;;;;0.22;0.22;;;16.30;99.90;;;;;;5021303;28;20052;-75
2022/02/23 10:00:13;;;;;;;1.55;1.08;;;16.10;99.90;;;;;;5019114;28;20488;-74
2022/02/23 10:02:39;;;;;;;0.90;0.90;;;15.40;99.90;;;;;;5012682;28;20492;-74
2022/02/23 10:05:07;;;;;;;0.10;0.10;;;15.70;99.90;;;;;;5046142;28;20053;-74
2022/02/23 10:07:38;;;;;;;0.40;0.40;;;14.80;99.90;;;;;;5018796;28;20108;-73
2022/02/23 10:10:07;;;;;;;0.38;0.10;;;15.00;99.90;;;;;;5012747;28;20029;-75
2022/02/23 10:12:34;;;;;;;0.00;0.00;;;14.70;99.90;;;;;;5021247;28;20594;-75
2022/02/23 10:15:11;;;;;;;0.43;0.30;;;14.30;99.90;;;;;;5028241;28;20025;-76
2022/02/23 10:17:38;;;;;;;0.03;0.03;;;14.10;99.90;;;;;;5029063;28;20021;-76
2022/02/23 10:20:04;;;;;;;0.85;0.85;;;14.20;99.90;;;;;;5028948;28;20034;-76
2022/02/23 10:22:32;;;;;;;0.32;0.32;;;14.70;99.90;;;;;;5020252;28;20034;-74
2022/02/23 10:24:59;;;;;;;0.80;0.20;;;14.50;99.90;;;;;;5024438;28;20384;-73
2022/02/23 10:27:25;;;;;;;0.10;0.10;;;14.30;99.90;;;;;;5014350;28;20461;-75
2022/02/23 10:29:55;;;;;;;3.10;0.47;;;14.20;99.90;;;;;;5022119;28;20493;-75
2022/02/23 10:32:22;;;;;;;0.30;0.20;;;14.00;99.90;;;;;;5019826;28;20065;-74
2022/02/23 10:34:50;;;;;;;0.65;0.65;;;13.70;99.90;;;;;;5026067;28;20025;-74
2022/02/23 10:37:25;;;;;;;0.20;0.20;;;13.30;99.90;;;;;;5019535;28;20018;-73
2022/02/23 10:39:56;;;;;;;0.00;0.00;;;13.30;99.90;;;;;;5021908;28;20037;-74
2022/02/23 10:42:29;;;;;;;0.00;0.00;;;13.10;99.90;;;;;;5027136;28;20038;-73
2022/02/23 10:44:56;;;;;;;;;;;13.00;99.90;;;;;;5024861;28;20053;-73
2022/02/23 10:47:33;;;;;;;0.52;0.45;;;12.90;99.90;;;;;;5020152;28;19920;-73
2022/02/23 10:50:14;;;;;;;1.67;1.20;;;12.90;99.90;;;;;;5019852;28;20088;-73
2022/02/23 10:52:42;;;;;;;0.03;0.03;;;12.90;99.90;;;;;;5018143;28;20397;-73
2022/02/23 10:55:19;;;;;;;0.70;0.63;;;12.90;99.90;;;;;;5015846;28;20034;-74
2022/02/23 10:57:56;;;;;;;0.00;0.00;;;13.00;99.90;;;;;;5014929;28;20025;-73
2022/02/23 11:00:25;;;;;;;0.00;0.00;;;13.10;99.90;;;;;;5018674;28;20041;-73
2022/02/23 11:02:51;;;;;;;2.45;0.70;;;13.20;99.90;;;;;;5017271;28;20532;-73
2022/02/23 11:05:23;;;;;;;7.30;1.88;;;13.50;99.90;;;;;;5019560;28;20034;-74
2022/02/23 11:07:49;;;;;;;0.22;0.22;;;13.60;99.90;;;;;;5022106;28;20018;-73
2022/02/23 11:10:14;;;;;;;0.90;0.75;;;13.60;99.90;;;;;;5030208;28;20121;-74
2022/02/23 11:12:46;;;;;;;0.10;0.10;;;13.70;99.90;;;;;;5032734;28;20568;-73
2022/02/23 11:15:19;;;;;;;0.35;0.35;;;13.80;99.90;;;;;;5026780;28;20051;-73
2022/02/23 11:17:46;;;;;;;2.25;0.43;;;13.80;99.90;;;;;;5035866;28;20032;-73
2022/02/23 11:20:21;;;;;;;0.00;0.00;;;13.80;99.90;;;;;;5051993;28;20503;-74
2022/02/23 11:22:56;;;;;;;0.05;0.05;;;14.20;99.90;;;;;;5043475;28;20030;-73
2022/02/23 11:25:24;;;;;;;0.17;0.17;;;14.00;99.90;;;;;;5033964;28;20495;-73
2022/02/23 11:27:56;;;;;;;2.22;0.32;;;14.10;99.90;;;;;;5034736;28;20507;-73
2022/02/23 11:30:28;;;;;;;0.98;0.80;;;14.30;99.90;;;;;;5031223;28;20112;-73
2022/02/23 11:32:53;;;;;;;0.20;0.20;;;14.70;99.90;;;;;;5022204;28;20040;-75
2022/02/23 11:35:39;;;;;;;0.00;0.00;;;14.60;99.90;;;;;;5027075;28;20389;-74
2022/02/23 11:38:06;;;;;;;10.25;0.40;;;14.60;99.90;;;;;;5048696;28;20060;-73
2022/02/23 11:40:48;;;;;;;0.00;0.00;;;14.70;99.90;;;;;;5038905;28;20038;-74
2022/02/23 11:43:28;;;;;;;0.00;0.00;;;14.90;99.90;;;;;;5043350;28;20126;-74
2022/02/23 11:45:56;;;;;;;0.45;0.32;;;15.20;99.90;;;;;;5023741;28;20025;-75
2022/02/23 11:48:22;;;;;;;4.30;0.25;;;15.30;99.90;;;;;;5031410;28;20040;-74
2022/02/23 11:51:03;;;;;;;3.10;1.98;;;15.40;99.90;;;;;;5032954;28;20423;-74
2022/02/23 11:53:40;;;;;;;0.13;0.13;;;15.30;99.90;;;;;;5031942;28;20124;-73
2022/02/23 11:56:14;;;;;;;1.75;1.17;;;15.00;99.90;;;;;;5032618;28;20026;-74
2022/02/23 11:58:47;;;;;;;1.45;0.93;;;14.80;99.90;;;;;;5031474;28;20050;-73
2022/02/23 12:01:14;;;;;;;1.45;1.35;;;14.80;99.90;;;;;;5031481;28;20399;-74
2022/02/23 12:03:42;;;;;;;0.32;0.28;;;14.70;99.90;;;;;;5028666;28;20041;-73
2022/02/23 12:06:09;;;;;;;1.90;0.55;;;14.70;99.90;;;;;;5033549;28;20104;-73
2022/02/23 12:08:47;;;;;;;0.30;0.30;;;14.90;99.90;;;;;;5031419;28;20404;-75
2022/02/23 12:11:15;;;;;;;2.10;1.27;;;15.10;99.90;;;;;;5027696;28;20372;-74
2022/02/23 12:13:51;;;;;;;0.30;0.30;;;15.50;99.90;;;;;;5028024;28;20037;-73
2022/02/23 12:16:35;;;;;;;1.25;1.08;;;15.50;99.90;;;;;;5032098;28;20366;-75
2022/02/23 12:19:04;;;;;;;0.00;0.00;;;15.60;99.90;;;;;;5032991;28;20033;-74
2022/02/23 12:21:47;;;;;;;0.00;0.00;;;15.50;99.90;;;;;;5033457;28;20018;-73
2022/02/23 12:24:17;;;;;;;0.55;0.38;;;15.20;99.90;;;;;;5025147;28;20034;-74
2022/02/23 12:26:44;;;;;;;9.95;0.75;;;15.00;99.90;;;;;;5036517;28;20433;-74
2022/02/23 12:29:12;;;;;;;0.00;0.00;;;15.00;99.90;;;;;;5032416;28;20063;-73
2022/02/23 12:31:39;;;;;;;0.13;0.13;;;14.90;99.90;;;;;;5031583;28;20022;-73
2022/02/23 12:34:23;;;;;;;0.25;0.15;;;14.90;99.90;;;;;;5032600;28;20048;-73
2022/02/23 12:36:53;;;;;;;0.75;0.75;;;14.80;99.90;;;;;;5022981;28;20429;-75
2022/02/23 12:39:22;;;;;;;0.32;0.32;;;14.80;99.90;;;;;;5032302;28;20102;-73
2022/02/23 12:41:52;;;;;;;1.27;0.85;;;15.00;99.90;;;;;;5033240;28;20053;-73
2022/02/23 12:44:23;;;;;;;0.47;0.20;;;14.70;99.90;;;;;;5032321;28;20054;-73
2022/02/23 12:46:57;;;;;;;0.70;0.03;;;14.30;99.90;;;;;;5031864;28;20041;-74
2022/02/23 12:49:24;;;;;;;0.65;0.10;;;14.30;99.90;;;;;;5031283;28;20068;-75
2022/02/23 12:51:51;;;;;;;0.00;0.00;;;14.10;99.90;;;;;;5030163;28;20037;-73